Time;durP1;ratioP1;P1;durP2;ratioP2;P2;SDS_P1;SDS_P2;PMS_P1;PMS_P2;Temp;Humidity;BMP_temperature;BMP_pressure;BME280_temperature;BME280_humidity;BME280_pressure;Samples;Min_cycle;Max_cycle;Signal;HPM_P1;HPM_P2
2022/09/18 00:00:13;;;;;;;5.27;4.57;;;11.30;99.90;;;;;;5053746;28;20262;-71
2022/09/18 00:02:40;;;;;;;6.57;4.67;;;11.30;99.90;;;;;;5054031;28;20293;-71
2022/09/18 00:05:07;;;;;;;6.20;4.40;;;11.30;99.90;;;;;;5053803;28;20367;-71
2022/09/18 00:07:35;;;;;;;11.60;4.70;;;11.30;99.90;;;;;;5053745;28;20693;-71
2022/09/18 00:10:02;;;;;;;5.70;4.43;;;11.40;99.90;;;;;;5059263;28;20526;-70
2022/09/18 00:12:29;;;;;;;6.47;4.60;;;11.40;99.90;;;;;;5062955;28;20226;-70
2022/09/18 00:14:55;;;;;;;5.43;4.53;;;11.40;99.90;;;;;;5051871;28;20210;-70
2022/09/18 00:17:22;;;;;;;7.07;4.77;;;11.40;99.90;;;;;;5053006;28;20580;-70
2022/09/18 00:19:49;;;;;;;7.37;5.17;;;11.40;99.90;;;;;;5052759;28;20198;-70
2022/09/18 00:22:16;;;;;;;5.67;4.73;;;11.40;99.90;;;;;;5056147;28;20311;-71
2022/09/18 00:24:44;;;;;;;6.07;4.43;;;11.40;99.90;;;;;;5051586;28;20205;-71
2022/09/18 00:27:10;;;;;;;5.67;4.30;;;11.40;99.90;;;;;;5053785;28;20198;-71
2022/09/18 00:29:37;;;;;;;5.67;4.23;;;11.40;99.90;;;;;;5053861;28;20226;-69
2022/09/18 00:32:04;;;;;;;5.53;4.43;;;11.40;99.90;;;;;;5055315;28;20206;-70
2022/09/18 00:34:31;;;;;;;5.17;4.50;;;11.40;99.90;;;;;;5053225;28;20209;-70
2022/09/18 00:36:57;;;;;;;5.23;4.40;;;11.40;99.90;;;;;;5058517;28;20241;-71
2022/09/18 00:39:24;;;;;;;6.83;4.10;;;11.40;99.90;;;;;;5047169;28;20229;-70
2022/09/18 00:41:52;;;;;;;5.00;3.90;;;11.40;99.90;;;;;;5054397;28;20217;-70
2022/09/18 00:44:38;;;;;;;8.30;4.43;;;11.50;99.90;;;;;;5058489;28;20201;-70
2022/09/18 00:47:20;;;;;;;5.83;3.90;;;11.40;99.90;;;;;;5053954;28;20198;-71
2022/09/18 00:49:50;;;;;;;6.10;4.50;;;11.40;99.90;;;;;;5045719;28;20221;-71
2022/09/18 00:52:21;;;;;;;5.03;4.10;;;11.50;99.90;;;;;;5050983;28;20205;-70
2022/09/18 00:54:50;;;;;;;4.97;4.43;;;11.40;99.90;;;;;;5052211;28;20206;-70
2022/09/18 00:57:22;;;;;;;6.70;4.23;;;11.40;99.90;;;;;;5055185;28;20647;-71
2022/09/18 00:59:51;;;;;;;5.87;4.43;;;11.40;99.90;;;;;;5041497;28;20206;-70
2022/09/18 01:02:19;;;;;;;5.60;4.47;;;11.40;99.90;;;;;;5052750;28;20201;-71
2022/09/18 01:04:46;;;;;;;8.47;4.47;;;11.50;99.90;;;;;;5053017;28;20202;-71
2022/09/18 01:07:24;;;;;;;5.87;4.17;;;11.40;99.90;;;;;;5057576;28;20651;-70
2022/09/18 01:09:59;;;;;;;5.47;4.03;;;11.40;99.90;;;;;;5058160;28;20566;-70
2022/09/18 01:12:37;;;;;;;5.67;4.43;;;11.40;99.90;;;;;;5053502;28;20669;-70
2022/09/18 01:15:14;;;;;;;6.13;4.10;;;11.40;99.90;;;;;;5058984;28;20202;-70
2022/09/18 01:17:49;;;;;;;5.70;4.10;;;11.40;99.90;;;;;;5061817;28;20205;-70
2022/09/18 01:20:35;;;;;;;5.80;4.30;;;11.40;99.90;;;;;;5052608;28;20201;-69
2022/09/18 01:23:19;;;;;;;5.27;4.07;;;11.40;99.90;;;;;;5060470;28;20229;-70
2022/09/18 01:25:56;;;;;;;6.30;4.20;;;11.40;99.90;;;;;;5062829;28;20213;-71
2022/09/18 01:28:31;;;;;;;6.13;3.90;;;11.40;99.90;;;;;;5046054;28;20221;-70
2022/09/18 01:31:05;;;;;;;9.10;4.40;;;11.40;99.90;;;;;;5041206;28;20252;-70
2022/09/18 01:33:40;;;;;;;6.83;4.70;;;11.50;99.90;;;;;;5053818;28;20560;-70
2022/09/18 01:36:13;;;;;;;7.63;4.50;;;11.40;99.90;;;;;;5054922;28;20247;-70
2022/09/18 01:38:44;;;;;;;10.07;4.77;;;11.40;99.90;;;;;;5048292;28;20209;-70
2022/09/18 01:41:15;;;;;;;6.53;4.13;;;11.40;99.90;;;;;;5041637;28;20202;-70
2022/09/18 01:43:45;;;;;;;5.67;4.73;;;11.40;99.90;;;;;;5055243;28;20606;-70
2022/09/18 01:46:16;;;;;;;7.20;4.40;;;11.40;99.90;;;;;;5052392;28;20209;-71
2022/09/18 01:48:48;;;;;;;6.77;5.03;;;11.40;99.90;;;;;;5047434;28;20203;-71
2022/09/18 01:51:19;;;;;;;7.50;4.70;;;11.40;99.90;;;;;;5052513;28;20558;-70
2022/09/18 01:53:51;;;;;;;6.53;4.60;;;11.40;99.90;;;;;;5049224;28;20206;-70
2022/09/18 01:56:25;;;;;;;10.33;4.93;;;11.30;99.90;;;;;;5046138;28;20208;-70
2022/09/18 01:58:57;;;;;;;9.23;4.90;;;11.40;99.90;;;;;;5045910;28;20202;-70
2022/09/18 02:01:28;;;;;;;8.40;4.57;;;11.30;99.90;;;;;;5048373;28;20215;-70
2022/09/18 02:03:59;;;;;;;9.60;4.27;;;11.30;99.90;;;;;;5053759;28;20244;-70
2022/09/18 02:06:32;;;;;;;9.33;4.37;;;11.40;99.90;;;;;;5051420;28;20202;-71
2022/09/18 02:09:01;;;;;;;9.93;4.53;;;11.30;99.90;;;;;;5048932;28;20543;-70
2022/09/18 02:11:28;;;;;;;7.23;4.17;;;11.40;99.90;;;;;;5053328;28;20217;-71
2022/09/18 02:14:00;;;;;;;5.47;4.10;;;11.30;99.90;;;;;;5052043;28;20639;-70
2022/09/18 02:16:42;;;;;;;5.97;4.40;;;11.30;99.90;;;;;;5052801;28;20585;-70
2022/09/18 02:19:13;;;;;;;8.80;4.37;;;11.30;99.90;;;;;;5049049;28;20206;-71
2022/09/18 02:21:42;;;;;;;8.93;4.00;;;11.30;99.90;;;;;;5052357;28;20202;-71
2022/09/18 02:24:12;;;;;;;4.40;3.97;;;11.30;99.90;;;;;;5045053;28;20202;-70
2022/09/18 02:26:40;;;;;;;8.63;4.33;;;11.30;99.90;;;;;;5053575;28;20240;-69
2022/09/18 02:29:11;;;;;;;7.03;4.50;;;10.80;99.90;;;;;;5049681;28;20214;-70
2022/09/18 02:31:39;;;;;;;6.63;4.00;;;11.30;99.90;;;;;;5053577;28;20221;-71
2022/09/18 02:34:07;;;;;;;8.97;4.23;;;11.30;99.90;;;;;;5052116;28;20210;-70
2022/09/18 02:36:47;;;;;;;9.03;4.30;;;11.30;99.90;;;;;;5052786;28;20226;-71
2022/09/18 02:39:26;;;;;;;5.70;3.90;;;11.30;99.90;;;;;;5056417;28;20230;-70
2022/09/18 02:42:01;;;;;;;7.90;4.93;;;11.30;99.90;;;;;;5061792;28;20202;-70
2022/09/18 02:44:39;;;;;;;8.67;5.03;;;11.30;99.90;;;;;;5051055;28;20216;-69
2022/09/18 02:47:15;;;;;;;5.80;4.50;;;11.30;99.90;;;;;;5050060;28;20209;-70
2022/09/18 02:49:52;;;;;;;6.80;4.47;;;11.30;99.90;;;;;;5047664;28;20248;-70
2022/09/18 02:52:25;;;;;;;11.80;4.97;;;11.30;99.90;;;;;;5052750;28;20205;-70
2022/09/18 02:54:57;;;;;;;8.17;5.10;;;11.30;99.90;;;;;;5053859;28;20206;-71
2022/09/18 02:57:32;;;;;;;8.43;4.67;;;11.40;99.90;;;;;;5046926;28;20571;-71
2022/09/18 03:00:03;;;;;;;7.07;5.07;;;11.30;99.90;;;;;;5052053;28;20208;-70
2022/09/18 03:02:30;;;;;;;7.60;5.10;;;11.30;99.90;;;;;;5048135;28;20202;-70
2022/09/18 03:04:57;;;;;;;9.53;5.03;;;11.40;99.90;;;;;;5063338;28;20205;-70
2022/09/18 03:07:24;;;;;;;10.53;5.37;;;11.40;99.90;;;;;;5055650;28;20212;-70
2022/09/18 03:09:51;;;;;;;8.23;5.20;;;11.40;99.90;;;;;;5040064;28;20296;-71
2022/09/18 03:12:17;;;;;;;5.90;4.67;;;11.40;99.90;;;;;;5052367;28;20557;-70
2022/09/18 03:14:44;;;;;;;9.57;5.37;;;11.40;99.90;;;;;;5061212;28;20198;-71
2022/09/18 03:17:12;;;;;;;10.87;5.07;;;11.40;99.90;;;;;;5051554;28;20210;-70
2022/09/18 03:19:39;;;;;;;15.90;4.70;;;11.40;99.90;;;;;;5052130;28;20198;-70
2022/09/18 03:22:06;;;;;;;7.90;5.13;;;11.40;99.90;;;;;;5055381;28;20236;-70
2022/09/18 03:24:33;;;;;;;9.13;5.53;;;11.40;99.90;;;;;;5058593;28;20221;-69
2022/09/18 03:26:59;;;;;;;7.53;4.70;;;11.40;99.90;;;;;;5043913;28;20199;-70
2022/09/18 03:29:26;;;;;;;9.03;4.50;;;11.40;99.90;;;;;;5057089;28;20206;-70
2022/09/18 03:31:53;;;;;;;11.27;5.23;;;11.40;99.90;;;;;;5056617;28;20206;-70
2022/09/18 03:34:21;;;;;;;7.30;4.70;;;11.40;99.90;;;;;;5054368;28;20232;-70
2022/09/18 03:36:48;;;;;;;8.10;4.63;;;11.40;99.90;;;;;;5053621;28;20238;-70
2022/09/18 03:39:15;;;;;;;10.33;5.83;;;11.40;99.90;;;;;;5060201;28;20197;-70
2022/09/18 03:41:41;;;;;;;5.90;4.23;;;11.40;99.90;;;;;;5064840;28;20210;-69
2022/09/18 03:44:08;;;;;;;9.87;5.20;;;11.40;99.90;;;;;;5056369;28;20217;-70
2022/09/18 03:46:35;;;;;;;8.83;4.90;;;11.40;99.90;;;;;;5055780;28;20198;-69
2022/09/18 03:49:01;;;;;;;9.20;5.57;;;11.40;99.90;;;;;;5054266;28;20216;-70
2022/09/18 03:51:29;;;;;;;7.53;5.07;;;11.40;99.90;;;;;;5050665;28;20218;-70
2022/09/18 03:53:57;;;;;;;9.83;5.63;;;11.40;99.90;;;;;;5048762;28;20206;-70
2022/09/18 03:56:24;;;;;;;9.70;5.37;;;11.40;99.90;;;;;;5054431;28;20210;-69
2022/09/18 03:58:51;;;;;;;11.10;5.87;;;11.50;99.90;;;;;;5053617;28;20206;-69
2022/09/18 04:01:18;;;;;;;6.23;5.20;;;11.40;99.90;;;;;;5067026;28;20620;-69
2022/09/18 04:03:44;;;;;;;9.47;5.97;;;11.50;99.90;;;;;;5053716;28;20210;-69
2022/09/18 04:06:11;;;;;;;7.80;5.77;;;11.50;99.90;;;;;;5052644;28;20237;-70
2022/09/18 04:08:39;;;;;;;9.07;5.07;;;11.50;99.90;;;;;;5048181;28;20228;-69
2022/09/18 04:11:06;;;;;;;7.23;4.87;;;11.50;99.90;;;;;;5049577;28;20222;-69
2022/09/18 04:13:34;;;;;;;5.20;4.50;;;11.50;99.90;;;;;;5055625;28;20575;-69
2022/09/18 04:16:01;;;;;;;8.87;5.53;;;11.50;99.90;;;;;;5037136;28;20206;-71
2022/09/18 04:18:28;;;;;;;9.57;5.30;;;11.60;99.90;;;;;;5045788;28;20214;-71
2022/09/18 04:20:54;;;;;;;7.43;4.97;;;11.60;99.90;;;;;;5052619;28;20430;-71
2022/09/18 04:23:21;;;;;;;10.80;5.63;;;11.50;99.90;;;;;;5048999;28;20234;-70
2022/09/18 04:25:49;;;;;;;6.93;5.03;;;11.60;99.90;;;;;;5043948;28;20209;-70
2022/09/18 04:28:16;;;;;;;9.20;5.23;;;11.50;99.90;;;;;;5059225;28;20202;-70
2022/09/18 04:30:43;;;;;;;9.80;5.27;;;11.60;99.90;;;;;;5045958;28;20226;-69
2022/09/18 04:33:09;;;;;;;6.40;4.43;;;11.60;99.90;;;;;;5051520;28;20585;-70
2022/09/18 04:35:36;;;;;;;9.93;5.13;;;11.60;99.90;;;;;;5066979;28;20727;-71
2022/09/18 04:38:03;;;;;;;9.80;4.73;;;11.60;99.90;;;;;;5053435;28;20205;-70
2022/09/18 04:40:30;;;;;;;7.90;4.67;;;11.60;99.90;;;;;;5065876;28;20201;-70
2022/09/18 04:42:58;;;;;;;12.23;5.63;;;11.60;99.90;;;;;;5051729;28;20912;-69
2022/09/18 04:45:25;;;;;;;11.90;5.23;;;11.70;99.90;;;;;;5055150;28;20210;-70
2022/09/18 04:47:52;;;;;;;7.63;4.60;;;11.70;99.90;;;;;;5053224;28;20505;-71
2022/09/18 04:50:18;;;;;;;9.53;4.87;;;11.70;99.90;;;;;;5054733;28;20256;-69
2022/09/18 04:52:45;;;;;;;6.70;4.40;;;11.60;99.90;;;;;;5049466;28;20670;-70
2022/09/18 04:55:12;;;;;;;10.50;5.13;;;11.60;99.90;;;;;;5055295;28;20209;-70
2022/09/18 04:57:39;;;;;;;10.27;5.13;;;11.60;99.90;;;;;;5061745;28;20206;-71
2022/09/18 05:00:09;;;;;;;10.47;5.00;;;11.70;99.90;;;;;;5053909;28;20662;-72
2022/09/18 05:02:37;;;;;;;11.40;5.17;;;11.60;99.90;;;;;;5042446;28;20209;-70
2022/09/18 05:05:04;;;;;;;7.17;4.57;;;11.60;99.90;;;;;;5055301;28;20214;-71
2022/09/18 05:07:31;;;;;;;10.33;5.13;;;11.70;99.90;;;;;;5041929;28;20217;-71
2022/09/18 05:09:59;;;;;;;10.33;5.30;;;11.70;99.90;;;;;;5066018;28;20221;-70
2022/09/18 05:12:25;;;;;;;10.07;4.73;;;11.70;99.90;;;;;;5054037;28;20206;-70
2022/09/18 05:14:52;;;;;;;10.33;4.40;;;11.70;99.90;;;;;;5064036;28;20209;-71
2022/09/18 05:17:20;;;;;;;12.07;4.50;;;11.70;99.90;;;;;;5042718;28;20217;-71
2022/09/18 05:19:47;;;;;;;10.20;4.90;;;11.70;99.90;;;;;;5052644;28;20210;-69
2022/09/18 05:22:14;;;;;;;11.47;5.20;;;11.70;99.90;;;;;;5058454;28;20233;-69
2022/09/18 05:24:40;;;;;;;9.60;4.60;;;11.80;99.90;;;;;;5067878;28;20209;-69
2022/09/18 05:27:08;;;;;;;11.53;4.73;;;11.70;99.90;;;;;;5057302;28;20213;-70
2022/09/18 05:29:35;;;;;;;5.47;4.17;;;11.70;99.90;;;;;;5056558;28;20216;-72
2022/09/18 05:32:02;;;;;;;9.60;4.90;;;11.70;99.90;;;;;;5053616;28;20240;-71
2022/09/18 05:34:30;;;;;;;7.80;4.50;;;11.80;99.90;;;;;;5053761;28;20670;-70
2022/09/18 05:36:57;;;;;;;23.77;5.20;;;11.70;99.90;;;;;;5043001;28;20265;-70
2022/09/18 05:39:24;;;;;;;7.03;5.40;;;11.80;99.90;;;;;;5059501;28;20807;-71
2022/09/18 05:41:51;;;;;;;7.90;4.37;;;11.80;99.90;;;;;;5053225;28;20197;-72
2022/09/18 05:44:18;;;;;;;7.33;4.53;;;11.70;99.90;;;;;;5049084;28;20741;-71
2022/09/18 05:46:47;;;;;;;10.80;5.00;;;11.70;99.90;;;;;;5050727;28;20202;-72
2022/09/18 05:49:14;;;;;;;10.67;5.30;;;11.70;99.90;;;;;;5051091;28;20206;-72
2022/09/18 05:51:43;;;;;;;10.33;4.90;;;11.70;99.90;;;;;;5051469;28;20218;-71
2022/09/18 05:54:10;;;;;;;7.27;4.43;;;11.70;99.90;;;;;;5049030;28;20210;-71
2022/09/18 05:56:37;;;;;;;6.90;4.87;;;11.60;99.90;;;;;;5058729;28;20208;-73
2022/09/18 05:59:04;;;;;;;6.13;4.57;;;11.60;99.90;;;;;;5045949;28;20209;-74
2022/09/18 06:01:31;;;;;;;9.27;4.80;;;11.70;99.90;;;;;;5051347;28;20206;-73
2022/09/18 06:03:58;;;;;;;7.73;5.40;;;11.60;99.90;;;;;;5052311;28;20201;-73
2022/09/18 06:06:27;;;;;;;7.90;4.87;;;11.60;99.90;;;;;;5063883;28;20197;-72
2022/09/18 06:08:56;;;;;;;7.33;4.67;;;11.70;99.90;;;;;;5043434;28;20546;-73
2022/09/18 06:11:22;;;;;;;6.97;4.80;;;11.70;99.90;;;;;;5043776;28;20229;-72
2022/09/18 06:13:51;;;;;;;8.97;5.43;;;11.60;99.90;;;;;;5044367;28;20586;-73
2022/09/18 06:16:18;;;;;;;7.00;5.20;;;11.60;99.90;;;;;;5046518;28;20212;-72
2022/09/18 06:18:45;;;;;;;11.83;5.30;;;11.70;99.90;;;;;;5048139;28;20682;-73
2022/09/18 06:21:13;;;;;;;8.90;4.80;;;11.60;99.90;;;;;;5052693;28;20198;-73
2022/09/18 06:23:40;;;;;;;7.30;4.93;;;11.60;99.90;;;;;;5042051;28;20226;-70
2022/09/18 06:26:10;;;;;;;7.30;4.50;;;11.60;99.90;;;;;;5054058;28;20206;-71
2022/09/18 06:28:37;;;;;;;8.30;4.53;;;11.60;99.90;;;;;;5045622;28;20198;-70
2022/09/18 06:31:04;;;;;;;8.20;4.50;;;11.60;99.90;;;;;;5046222;28;20248;-70
2022/09/18 06:33:32;;;;;;;8.90;4.93;;;11.60;99.90;;;;;;5046843;28;20565;-70
2022/09/18 06:35:59;;;;;;;6.77;4.50;;;11.60;99.90;;;;;;5052210;28;20339;-70
2022/09/18 06:38:27;;;;;;;7.83;4.13;;;11.60;99.90;;;;;;5042746;28;20212;-70
2022/09/18 06:40:54;;;;;;;6.93;4.23;;;11.60;99.90;;;;;;5041399;28;20194;-69
2022/09/18 06:43:23;;;;;;;7.80;4.00;;;11.60;99.90;;;;;;5047465;28;20229;-70
2022/09/18 06:45:53;;;;;;;6.80;4.13;;;11.60;99.90;;;;;;5038527;28;20229;-69
2022/09/18 06:48:20;;;;;;;7.77;3.57;;;11.60;99.90;;;;;;5034400;28;20213;-70
2022/09/18 06:50:51;;;;;;;6.20;3.37;;;11.60;99.90;;;;;;5041351;28;20233;-70
2022/09/18 06:53:18;;;;;;;6.43;2.70;;;11.60;99.90;;;;;;5043339;28;20295;-68
2022/09/18 06:55:47;;;;;;;7.77;3.33;;;11.60;99.90;;;;;;5055999;28;20202;-73
2022/09/18 06:58:14;;;;;;;6.00;3.27;;;11.60;99.90;;;;;;5051130;28;20727;-75
2022/09/18 07:00:43;;;;;;;5.23;3.57;;;11.60;99.90;;;;;;5048861;28;20735;-72
2022/09/18 07:03:09;;;;;;;5.67;3.00;;;11.50;99.90;;;;;;5053455;28;20621;-75
2022/09/18 07:05:39;;;;;;;5.47;2.90;;;11.60;99.90;;;;;;5043305;28;20213;-74
2022/09/18 07:08:06;;;;;;;3.47;2.77;;;11.50;99.90;;;;;;5054526;28;20308;-72
2022/09/18 07:10:33;;;;;;;3.87;3.03;;;11.50;99.90;;;;;;5060022;28;20667;-72
2022/09/18 07:13:01;;;;;;;4.03;3.07;;;11.50;99.90;;;;;;5055718;28;20710;-75
2022/09/18 07:15:28;;;;;;;4.77;2.80;;;11.50;99.90;;;;;;5064373;28;20751;-74
2022/09/18 07:17:57;;;;;;;5.77;2.73;;;11.50;99.90;;;;;;5049364;28;20524;-72
2022/09/18 07:20:25;;;;;;;3.17;2.80;;;11.40;99.90;;;;;;5050525;28;20210;-71
2022/09/18 07:22:53;;;;;;;4.37;2.70;;;11.30;99.90;;;;;;5050358;28;20253;-72
2022/09/18 07:25:21;;;;;;;4.93;2.47;;;11.40;99.90;;;;;;5052685;28;20214;-70
2022/09/18 07:27:48;;;;;;;4.17;2.97;;;11.30;99.90;;;;;;5054188;28;20233;-72
2022/09/18 07:30:15;;;;;;;6.47;3.30;;;11.30;99.90;;;;;;5054497;28;20210;-72
2022/09/18 07:32:42;;;;;;;4.60;3.00;;;11.30;99.90;;;;;;5050463;28;20230;-71
2022/09/18 07:35:12;;;;;;;4.53;2.60;;;11.40;99.90;;;;;;5048035;28;20560;-72
2022/09/18 07:37:39;;;;;;;4.43;2.37;;;11.40;99.90;;;;;;5052871;28;20242;-70
2022/09/18 07:40:07;;;;;;;4.47;2.70;;;11.40;99.90;;;;;;5054068;28;20576;-73
2022/09/18 07:42:34;;;;;;;4.63;2.23;;;11.50;99.90;;;;;;5056525;28;20546;-72
2022/09/18 07:45:01;;;;;;;4.37;2.40;;;11.50;99.90;;;;;;5053271;28;20210;-74
2022/09/18 07:47:28;;;;;;;3.10;2.50;;;11.50;99.90;;;;;;5050078;28;20233;-70
2022/09/18 07:49:55;;;;;;;5.73;2.50;;;11.50;99.90;;;;;;5052682;28;20560;-69
2022/09/18 07:52:23;;;;;;;2.83;2.20;;;11.40;99.90;;;;;;5049975;28;20221;-67
2022/09/18 07:54:50;;;;;;;5.27;2.47;;;11.30;99.90;;;;;;5040913;28;20210;-71
2022/09/18 07:57:17;;;;;;;4.07;2.53;;;11.30;99.90;;;;;;5049821;28;20213;-69
2022/09/18 07:59:44;;;;;;;3.40;2.70;;;11.30;99.90;;;;;;5049815;28;20206;-68
2022/09/18 08:02:11;;;;;;;4.20;2.20;;;11.30;99.90;;;;;;5048973;28;20210;-71
2022/09/18 08:04:38;;;;;;;4.27;2.60;;;11.30;99.90;;;;;;5058595;28;20234;-72
2022/09/18 08:07:05;;;;;;;4.90;3.20;;;11.30;99.90;;;;;;5062459;28;20210;-72
2022/09/18 08:09:33;;;;;;;5.50;2.73;;;11.20;99.90;;;;;;5067799;28;20661;-72
2022/09/18 08:12:01;;;;;;;5.20;2.93;;;11.20;99.90;;;;;;5053822;28;20241;-71
2022/09/18 08:14:28;;;;;;;4.67;3.27;;;11.30;99.90;;;;;;5049833;28;20206;-72
2022/09/18 08:16:55;;;;;;;5.32;3.80;;;11.20;99.90;;;;;;5045692;28;20463;-74
2022/09/18 08:19:22;;;;;;;5.30;3.20;;;11.20;99.90;;;;;;5048707;28;20222;-72
2022/09/18 08:21:49;;;;;;;5.13;3.33;;;11.20;99.90;;;;;;5048358;28;20309;-73
2022/09/18 08:24:16;;;;;;;7.17;3.67;;;11.20;99.90;;;;;;5045847;28;20210;-73
2022/09/18 08:26:45;;;;;;;5.97;3.78;;;11.30;99.90;;;;;;5052408;28;20463;-72
2022/09/18 08:29:17;;;;;;;4.80;3.23;;;11.30;99.90;;;;;;5058314;28;20209;-72
2022/09/18 08:31:44;;;;;;;5.37;3.47;;;11.40;99.90;;;;;;5054726;28;20993;-72
2022/09/18 08:34:11;;;;;;;5.53;2.90;;;11.40;99.90;;;;;;5051535;28;20661;-72
2022/09/18 08:36:38;;;;;;;4.50;2.70;;;11.40;99.90;;;;;;5052478;28;20232;-72
2022/09/18 08:39:05;;;;;;;5.53;3.00;;;11.50;99.90;;;;;;5053948;28;20944;-71
2022/09/18 08:41:47;;;;;;;3.83;2.37;;;11.50;99.90;;;;;;5046074;28;20259;-69
2022/09/18 08:44:23;;;;;;;4.20;2.80;;;11.60;99.90;;;;;;5051588;28;20231;-69
2022/09/18 08:46:55;;;;;;;3.70;2.27;;;11.60;99.90;;;;;;5043790;28;20230;-69
2022/09/18 08:49:27;;;;;;;3.80;2.47;;;11.60;99.90;;;;;;5044464;28;21073;-66
2022/09/18 08:52:02;;;;;;;4.30;2.50;;;11.70;99.90;;;;;;5046234;28;20547;-65
2022/09/18 08:54:39;;;;;;;2.60;2.10;;;11.80;99.90;;;;;;5049142;28;20193;-66
2022/09/18 08:57:14;;;;;;;3.90;2.30;;;11.80;99.90;;;;;;5051803;28;20233;-67
2022/09/18 08:59:47;;;;;;;3.53;2.50;;;11.90;99.90;;;;;;5050394;28;20201;-67
2022/09/18 09:02:23;;;;;;;4.28;2.78;;;12.10;99.90;;;;;;5048999;28;20815;-66
2022/09/18 09:04:50;;;;;;;5.80;2.87;;;12.30;99.90;;;;;;5045234;28;20202;-66
2022/09/18 09:07:35;;;;;;;5.83;3.20;;;12.50;99.90;;;;;;5048853;28;20585;-68
2022/09/18 09:10:24;;;;;;;5.80;2.30;;;12.70;99.90;;;;;;5045663;28;20206;-67
2022/09/18 09:12:59;;;;;;;7.80;2.80;;;12.90;99.90;;;;;;5045114;28;20238;-67
2022/09/18 09:15:36;;;;;;;4.10;2.33;;;13.10;99.90;;;;;;5054137;28;20266;-67
2022/09/18 09:18:16;;;;;;;4.33;2.60;;;13.10;99.90;;;;;;5047428;28;20205;-66
2022/09/18 09:20:50;;;;;;;5.50;2.30;;;13.20;99.90;;;;;;5036803;28;20209;-69
2022/09/18 09:23:22;;;;;;;4.83;2.83;;;13.20;99.90;;;;;;5054769;28;20218;-68
2022/09/18 09:26:00;;;;;;;3.47;2.83;;;13.20;99.90;;;;;;5054766;28;20193;-68
2022/09/18 09:28:34;;;;;;;4.70;3.33;;;13.20;99.90;;;;;;5062449;28;20205;-68
2022/09/18 09:31:07;;;;;;;5.00;2.90;;;13.20;99.90;;;;;;5043839;28;20565;-69
2022/09/18 09:33:38;;;;;;;8.00;2.80;;;13.30;99.90;;;;;;5047883;28;20579;-69
2022/09/18 09:36:09;;;;;;;3.87;2.37;;;13.50;99.90;;;;;;5047137;28;20773;-68
2022/09/18 09:38:44;;;;;;;4.53;2.30;;;13.80;99.90;;;;;;5051179;28;20201;-68
2022/09/18 09:41:19;;;;;;;4.93;2.17;;;14.50;99.90;;;;;;5051802;28;20211;-67
2022/09/18 09:43:56;;;;;;;4.57;2.33;;;15.50;99.90;;;;;;5048007;28;20209;-68
2022/09/18 09:46:47;;;;;;;4.97;2.23;;;16.30;99.90;;;;;;5047125;28;20212;-69
2022/09/18 09:49:18;;;;;;;2.67;1.90;;;16.90;99.90;;;;;;5042563;28;20580;-71
2022/09/18 09:51:54;;;;;;;3.03;1.43;;;17.10;99.90;;;;;;5051416;28;20222;-70
2022/09/18 09:54:21;;;;;;;4.07;1.87;;;17.20;99.90;;;;;;5050112;28;20201;-71
2022/09/18 09:56:54;;;;;;;4.13;1.70;;;17.30;99.90;;;;;;5051325;28;20229;-69
2022/09/18 09:59:27;;;;;;;2.10;1.60;;;17.40;99.90;;;;;;5047990;28;20214;-68
2022/09/18 10:02:06;;;;;;;3.95;1.73;;;17.50;99.90;;;;;;5048408;28;20201;-67
2022/09/18 10:04:39;;;;;;;4.47;1.50;;;17.30;99.90;;;;;;5056958;28;20681;-69
2022/09/18 10:07:14;;;;;;;2.50;1.73;;;17.10;99.90;;;;;;5050190;28;20517;-68
2022/09/18 10:09:47;;;;;;;2.40;1.42;;;16.80;99.90;;;;;;5049259;28;20213;-68
2022/09/18 10:12:24;;;;;;;2.65;1.67;;;16.60;99.90;;;;;;5043528;28;20579;-69
2022/09/18 10:14:55;;;;;;;1.47;1.37;;;16.30;99.90;;;;;;5057153;28;20296;-68
2022/09/18 10:17:23;;;;;;;2.87;1.40;;;16.00;99.90;;;;;;5045164;28;20212;-68
2022/09/18 10:19:52;;;;;;;4.50;2.10;;;15.80;99.90;;;;;;5048254;28;20217;-68
2022/09/18 10:22:22;;;;;;;3.97;1.93;;;15.70;99.90;;;;;;5049584;28;20218;-69
2022/09/18 10:24:56;;;;;;;3.20;2.00;;;15.50;99.90;;;;;;5044534;28;20633;-69
2022/09/18 10:27:23;;;;;;;4.87;2.13;;;15.50;99.90;;;;;;5048332;28;20853;-69
2022/09/18 10:29:53;;;;;;;2.27;1.67;;;15.50;99.90;;;;;;5049991;28;20210;-69
2022/09/18 10:32:35;;;;;;;3.03;1.83;;;15.50;99.90;;;;;;5055052;28;20224;-70
2022/09/18 10:35:22;;;;;;;3.27;1.90;;;15.40;99.90;;;;;;5053778;28;20296;-67
2022/09/18 10:37:49;;;;;;;2.63;1.73;;;15.50;99.90;;;;;;5065003;28;20235;-69
2022/09/18 10:40:29;;;;;;;5.93;2.00;;;15.50;99.90;;;;;;5066205;28;20560;-68
2022/09/18 10:42:57;;;;;;;2.77;1.90;;;15.80;99.90;;;;;;5048256;28;20210;-68
2022/09/18 10:45:26;;;;;;;3.43;2.03;;;16.00;99.90;;;;;;5044244;28;20324;-67
2022/09/18 10:48:05;;;;;;;3.03;1.57;;;16.00;99.90;;;;;;5045486;28;20198;-69
2022/09/18 10:50:32;;;;;;;4.60;1.90;;;16.10;99.90;;;;;;5051489;28;20213;-69
2022/09/18 10:53:24;;;;;;;4.88;2.20;;;16.30;99.90;;;;;;5043949;28;20238;-70
2022/09/18 10:55:51;;;;;;;3.77;1.97;;;16.20;99.90;;;;;;5060544;28;20197;-69
2022/09/18 10:58:26;;;;;;;2.27;1.90;;;16.10;99.90;;;;;;5050544;28;20206;-70
2022/09/18 11:00:57;;;;;;;4.50;1.93;;;16.10;99.90;;;;;;5056849;28;20220;-70
2022/09/18 11:03:39;;;;;;;4.63;2.07;;;15.90;99.90;;;;;;5055721;28;20198;-69
2022/09/18 11:06:16;;;;;;;1.80;1.70;;;15.90;99.90;;;;;;5062402;28;20296;-69
2022/09/18 11:08:47;;;;;;;6.93;1.97;;;15.90;99.90;;;;;;5045206;28;20206;-68
2022/09/18 11:11:24;;;;;;;2.97;2.00;;;15.90;99.90;;;;;;5055909;28;20206;-71
2022/09/18 11:13:56;;;;;;;1.93;1.80;;;15.80;99.90;;;;;;5051380;28;20723;-68
2022/09/18 11:16:24;;;;;;;3.43;1.83;;;15.70;99.90;;;;;;5059302;28;20198;-68
2022/09/18 11:19:05;;;;;;;3.30;1.90;;;15.60;99.90;;;;;;5067546;28;20206;-69
2022/09/18 11:21:32;;;;;;;3.50;2.00;;;15.60;99.90;;;;;;5061332;28;20208;-69
2022/09/18 11:24:03;;;;;;;3.67;2.40;;;15.70;99.90;;;;;;5056131;28;20207;-69
2022/09/18 11:26:31;;;;;;;2.13;1.73;;;16.00;99.90;;;;;;5051942;28;20210;-69
2022/09/18 11:29:04;;;;;;;4.27;1.97;;;16.40;99.90;;;;;;5055644;28;20214;-70
2022/09/18 11:31:43;;;;;;;4.03;1.90;;;16.90;99.90;;;;;;5052098;28;20330;-69
2022/09/18 11:34:33;;;;;;;5.13;2.73;;;17.00;99.90;;;;;;5048601;28;20244;-69
2022/09/18 11:37:05;;;;;;;3.10;1.60;;;16.90;99.90;;;;;;5041968;28;20244;-70
2022/09/18 11:39:35;;;;;;;2.25;1.83;;;16.90;99.90;;;;;;5064013;28;20201;-70
2022/09/18 11:42:09;;;;;;;3.17;1.90;;;16.90;99.90;;;;;;5053298;28;20209;-71
2022/09/18 11:44:36;;;;;;;2.93;2.00;;;16.90;99.90;;;;;;5043684;28;20202;-70
2022/09/18 11:47:25;;;;;;;2.60;2.08;;;16.80;99.90;;;;;;5051523;28;20210;-70
2022/09/18 11:49:58;;;;;;;3.23;2.37;;;16.60;99.90;;;;;;5050093;28;20515;-70
2022/09/18 11:52:30;;;;;;;6.43;2.00;;;16.60;99.90;;;;;;5060339;28;20232;-70
2022/09/18 11:55:03;;;;;;;2.30;2.10;;;16.50;99.90;;;;;;5065144;28;20213;-70
2022/09/18 11:57:35;;;;;;;2.25;2.05;;;16.40;99.90;;;;;;5067629;28;20288;-70
2022/09/18 12:00:08;;;;;;;2.93;2.20;;;16.20;99.90;;;;;;5055113;28;20664;-72
2022/09/18 12:02:42;;;;;;;2.22;2.08;;;16.10;99.90;;;;;;5055750;28;20194;-70
2022/09/18 12:05:19;;;;;;;4.37;2.47;;;16.00;99.90;;;;;;5059510;28;20210;-69
2022/09/18 12:07:56;;;;;;;4.87;2.27;;;15.90;99.90;;;;;;5052674;28;20198;-70
2022/09/18 12:10:33;;;;;;;3.43;2.20;;;15.90;99.90;;;;;;5051872;28;20204;-68
2022/09/18 12:13:15;;;;;;;2.47;1.57;;;15.90;99.90;;;;;;5056220;28;20220;-69
2022/09/18 12:15:46;;;;;;;5.37;1.93;;;15.80;99.90;;;;;;5050590;28;20573;-68
2022/09/18 12:18:18;;;;;;;2.80;1.90;;;15.70;99.90;;;;;;5052656;28;20206;-68
2022/09/18 12:20:51;;;;;;;4.17;2.40;;;15.60;99.90;;;;;;5054844;28;20209;-70
2022/09/18 12:23:24;;;;;;;3.57;2.10;;;15.50;99.90;;;;;;5054582;28;20233;-71
2022/09/18 12:26:04;;;;;;;4.97;2.60;;;15.40;99.90;;;;;;5046496;28;20205;-70
2022/09/18 12:28:49;;;;;;;3.30;1.80;;;15.40;99.90;;;;;;5065378;28;20190;-71
2022/09/18 12:31:25;;;;;;;3.63;1.80;;;15.30;99.90;;;;;;5062545;28;20202;-70
2022/09/18 12:33:58;;;;;;;2.57;1.40;;;15.30;99.90;;;;;;5050284;28;20245;-70
2022/09/18 12:37:03;;;;;;;2.27;1.50;;;15.20;99.90;;;;;;5058226;28;20241;-70
2022/09/18 12:39:51;;;;;;;3.67;1.90;;;15.20;99.90;;;;;;5043198;28;20210;-71
2022/09/18 12:42:26;;;;;;;6.40;1.93;;;15.30;99.90;;;;;;5051729;28;20654;-71
2022/09/18 12:45:43;;;;;;;2.93;1.60;;;15.30;99.90;;;;;;5052406;28;20198;-70
2022/09/18 12:48:31;;;;;;;3.57;1.30;;;15.30;99.90;;;;;;5049091;28;20221;-71
2022/09/18 12:51:14;;;;;;;4.70;1.77;;;15.30;99.90;;;;;;5049144;28;20198;-69
2022/09/18 12:53:55;;;;;;;3.33;1.97;;;15.20;99.90;;;;;;5062832;28;20205;-70
2022/09/18 12:56:39;;;;;;;4.00;1.83;;;15.10;99.90;;;;;;5061250;28;20654;-69
2022/09/18 12:59:33;;;;;;;4.73;2.33;;;15.00;99.90;;;;;;5055234;28;20670;-70
2022/09/18 13:02:10;;;;;;;2.30;1.67;;;14.90;99.90;;;;;;5045007;28;20206;-70
2022/09/18 13:04:45;;;;;;;1.97;1.70;;;14.80;99.90;;;;;;5058831;28;20563;-70